NCAR-RAP Real-Time Weather Data

Output produced by METARs form (01 December 2020  17:50 UTC)
found at http://weather.rap.ucar.edu/surface/
 
KLAN 011653Z 32013G20KT 10SM OVC023 00/M05 A2983 RMK AO2 SLP111 T00001050
KLAN 011553Z 32013G19KT 10SM OVC021 M01/M05 A2983 RMK AO2 SLP112 T10061050
KLAN 011453Z 31009KT 10SM OVC017 M01/M05 A2983 RMK AO2 SLP112 T10111050 51005
KLAN 011353Z 34010KT 10SM OVC019 M02/M06 A2983 RMK AO2 SLP111 T10171056
KLAN 011253Z 33012G18KT 10SM OVC019 M02/M05 A2982 RMK AO2 SLP109 T10171050
KLAN 011153Z 33012G21KT 10SM OVC020 M02/M06 A2982 RMK AO2 SLP107 T10171056 11017 21017 53006
KLAN 011053Z 33011KT 10SM OVC020 M02/M06 A2981 RMK AO2 SLP103 T10171056
KLAN 010953Z 33008G17KT 10SM OVC020 M02/M06 A2980 RMK AO2 SLP100 T10171056
KLAN 010853Z 34011KT 10SM OVC022 M02/M06 A2980 RMK AO2 SLP101 T10171061 56002
KLAN 010753Z 35012G19KT 10SM OVC023 M02/M06 A2980 RMK AO2 SLP102 T10171061
KLAN 010653Z 34014G22KT 10SM OVC023 M02/M06 A2980 RMK AO2 SLP100 T10171061
KLAN 010553Z 34015G21KT 10SM OVC021 M02/M06 A2981 RMK AO2 SLP103 T10171061 11006 21017 56004
KLAN 010453Z 33016G21KT 10SM OVC021 M02/M06 A2981 RMK AO2 SLP105 T10171061 400391017
KLAN 010353Z 33012G19KT 10SM OVC020 M01/M06 A2981 RMK AO2 SLP104 T10111056
KLAN 010253Z 34012KT 10SM OVC022 M01/M06 A2982 RMK AO2 SLP106 T10111056 50002
KLAN 010153Z 34009G18KT 10SM OVC022 M01/M06 A2982 RMK AO2 SLP108 T10111056